Time;durP1;ratioP1;P1;durP2;ratioP2;P2;SDS_P1;SDS_P2;PMS_P1;PMS_P2;Temp;Humidity;BMP_temperature;BMP_pressure;BME280_temperature;BME280_humidity;BME280_pressure;Samples;Min_cycle;Max_cycle;Signal;HPM_P1;HPM_P2
2023/12/29 00:00:08;;;;;;;0.93;0.87;;;7.10;99.90;;;;;;4934100;29;20611;-61
2023/12/29 00:02:34;;;;;;;0.70;0.70;;;7.20;99.90;;;;;;4934135;29;20186;-62
2023/12/29 00:05:00;;;;;;;1.40;1.33;;;7.30;99.90;;;;;;4934262;29;20680;-62
2023/12/29 00:07:25;;;;;;;0.60;0.60;;;7.30;99.90;;;;;;4935817;29;20256;-61
2023/12/29 00:09:51;;;;;;;1.43;1.23;;;7.30;99.90;;;;;;4937703;29;20170;-62
2023/12/29 00:12:16;;;;;;;1.87;1.77;;;7.20;99.90;;;;;;4937651;29;20175;-62
2023/12/29 00:14:43;;;;;;;0.53;0.53;;;7.30;99.90;;;;;;4937782;29;20252;-61
2023/12/29 00:17:09;;;;;;;1.10;1.00;;;7.40;99.90;;;;;;4937554;29;20209;-62
2023/12/29 00:19:34;;;;;;;0.60;0.60;;;7.40;99.90;;;;;;4937910;29;20178;-62
2023/12/29 00:22:02;;;;;;;2.43;2.33;;;7.40;99.90;;;;;;4937385;29;20556;-62
2023/12/29 00:24:31;;;;;;;0.85;0.85;;;7.50;99.90;;;;;;4937451;29;20198;-62
2023/12/29 00:26:57;;;;;;;1.45;1.27;;;7.40;99.90;;;;;;4937437;29;20759;-62
2023/12/29 00:29:22;;;;;;;1.00;0.87;;;7.50;99.90;;;;;;4937502;29;20212;-62
2023/12/29 00:31:48;;;;;;;1.23;1.07;;;7.50;99.90;;;;;;4937030;29;20495;-62
2023/12/29 00:34:13;;;;;;;0.80;0.80;;;7.40;99.90;;;;;;4937369;29;20684;-62
2023/12/29 00:36:39;;;;;;;0.70;0.70;;;7.40;99.90;;;;;;4937257;29;20202;-62
2023/12/29 00:39:04;;;;;;;1.67;1.57;;;7.50;99.90;;;;;;4937382;29;20192;-62
2023/12/29 00:41:31;;;;;;;13.23;2.27;;;7.40;99.90;;;;;;4937031;29;20185;-62
2023/12/29 00:43:57;;;;;;;1.95;0.98;;;7.40;99.90;;;;;;4937158;29;20281;-62
2023/12/29 00:46:22;;;;;;;3.73;1.67;;;7.50;99.90;;;;;;4936939;29;20308;-62
2023/12/29 00:48:48;;;;;;;2.53;2.10;;;7.40;99.90;;;;;;4937526;29;20191;-62
2023/12/29 00:51:14;;;;;;;0.60;0.50;;;7.40;99.90;;;;;;4936869;29;20173;-62
2023/12/29 00:53:39;;;;;;;0.63;0.63;;;7.50;99.90;;;;;;4937076;29;20231;-62
2023/12/29 00:56:11;;;;;;;0.70;0.60;;;7.50;99.90;;;;;;4936957;29;20196;-62
2023/12/29 00:58:37;;;;;;;1.20;1.20;;;7.50;99.90;;;;;;4937034;29;20217;-62
2023/12/29 01:01:03;;;;;;;1.10;1.10;;;7.50;99.90;;;;;;4936554;29;20660;-62
2023/12/29 01:03:28;;;;;;;1.77;1.00;;;7.50;99.90;;;;;;4936838;29;20497;-62
2023/12/29 01:05:54;;;;;;;0.87;0.77;;;7.50;99.90;;;;;;4936755;29;20194;-61
2023/12/29 01:08:20;;;;;;;1.77;1.30;;;7.50;99.90;;;;;;4936954;29;20681;-62
2023/12/29 01:10:45;;;;;;;0.77;0.57;;;7.50;99.90;;;;;;4936488;29;20257;-62
2023/12/29 01:13:11;;;;;;;0.70;0.70;;;7.50;99.90;;;;;;4936692;29;20216;-62
2023/12/29 01:15:37;;;;;;;4.17;1.50;;;7.60;99.90;;;;;;4936494;29;20289;-61
2023/12/29 01:18:02;;;;;;;0.57;0.57;;;7.60;99.90;;;;;;4936796;29;20621;-60
2023/12/29 01:20:28;;;;;;;1.10;0.90;;;7.50;99.90;;;;;;4936282;29;20261;-62
2023/12/29 01:22:54;;;;;;;0.60;0.60;;;7.50;99.90;;;;;;4936518;29;20275;-62
2023/12/29 01:25:19;;;;;;;1.27;1.27;;;7.60;99.90;;;;;;4936426;29;20304;-62
2023/12/29 01:27:45;;;;;;;2.37;1.63;;;7.50;99.90;;;;;;4936464;29;20174;-62
2023/12/29 01:30:11;;;;;;;0.88;0.88;;;7.50;99.90;;;;;;4935999;29;20177;-62
2023/12/29 01:32:37;;;;;;;1.07;1.07;;;7.50;99.90;;;;;;4936297;29;20675;-61
2023/12/29 01:35:03;;;;;;;1.33;0.90;;;7.50;99.90;;;;;;4936308;29;20412;-62
2023/12/29 01:37:28;;;;;;;0.90;0.90;;;7.40;99.90;;;;;;4936197;29;20201;-62
2023/12/29 01:40:00;;;;;;;1.87;1.77;;;7.50;99.90;;;;;;4936049;29;20508;-61
2023/12/29 01:42:25;;;;;;;2.60;1.60;;;7.60;99.90;;;;;;4936016;29;20176;-62
2023/12/29 01:44:54;;;;;;;1.20;1.10;;;7.60;99.90;;;;;;4936529;29;20216;-61
2023/12/29 01:47:21;;;;;;;0.95;0.95;;;7.60;99.90;;;;;;4935889;29;20228;-62
2023/12/29 01:49:48;;;;;;;1.70;1.60;;;7.60;99.90;;;;;;4936181;29;20192;-61
2023/12/29 01:52:16;;;;;;;1.92;1.83;;;7.60;99.90;;;;;;4935787;29;20178;-61
2023/12/29 01:54:42;;;;;;;1.00;1.00;;;7.50;99.90;;;;;;4935903;29;20186;-62
2023/12/29 01:57:08;;;;;;;2.40;1.50;;;7.50;99.90;;;;;;4935771;29;20227;-61
2023/12/29 01:59:35;;;;;;;3.13;1.30;;;7.60;99.90;;;;;;4935734;29;20219;-62
2023/12/29 02:02:02;;;;;;;2.03;1.90;;;7.60;99.90;;;;;;4935688;29;20260;-62
2023/12/29 02:04:28;;;;;;;4.78;1.30;;;7.60;99.90;;;;;;4935670;29;20733;-61
2023/12/29 02:06:55;;;;;;;1.08;1.02;;;7.60;99.90;;;;;;4935655;29;20193;-62
2023/12/29 02:09:21;;;;;;;1.25;1.23;;;7.50;99.90;;;;;;4935663;29;20667;-62
2023/12/29 02:11:47;;;;;;;1.13;1.13;;;7.50;99.90;;;;;;4935336;29;20174;-62
2023/12/29 02:14:15;;;;;;;0.70;0.70;;;7.60;99.90;;;;;;4935653;29;20257;-62
2023/12/29 02:16:56;;;;;;;12.10;1.48;;;7.70;99.90;;;;;;4935626;29;20584;-62
2023/12/29 02:19:36;;;;;;;1.23;1.13;;;7.60;99.90;;;;;;4935450;29;20177;-61
2023/12/29 02:22:02;;;;;;;1.42;1.02;;;7.70;99.90;;;;;;4935296;29;20220;-62
2023/12/29 02:24:27;;;;;;;1.13;1.00;;;7.60;99.90;;;;;;4935313;29;20226;-61
2023/12/29 02:27:03;;;;;;;1.37;1.27;;;7.60;99.90;;;;;;4935534;29;20201;-61
2023/12/29 02:29:31;;;;;;;1.92;1.85;;;7.60;99.90;;;;;;4934976;29;20183;-62
2023/12/29 02:31:59;;;;;;;2.38;2.13;;;7.60;99.90;;;;;;4935122;29;20209;-62
2023/12/29 02:34:27;;;;;;;6.93;1.33;;;7.60;99.90;;;;;;4935310;29;20282;-61
2023/12/29 02:36:54;;;;;;;1.40;1.30;;;7.60;99.90;;;;;;4935272;29;20216;-62
2023/12/29 02:39:20;;;;;;;1.85;1.55;;;7.60;99.90;;;;;;4935238;29;20181;-61
2023/12/29 02:41:46;;;;;;;2.00;1.77;;;7.60;99.90;;;;;;4934791;29;20188;-62
2023/12/29 02:44:11;;;;;;;1.70;1.60;;;7.70;99.90;;;;;;4935081;29;20213;-61
2023/12/29 02:46:37;;;;;;;5.00;2.80;;;7.80;99.90;;;;;;4934808;29;20217;-62
2023/12/29 02:49:03;;;;;;;1.53;1.43;;;7.90;99.90;;;;;;4934949;29;20181;-62
2023/12/29 02:51:29;;;;;;;2.53;2.43;;;7.80;99.90;;;;;;4934673;29;20437;-62
2023/12/29 02:53:54;;;;;;;1.17;1.10;;;7.90;99.90;;;;;;4934976;29;20244;-62
2023/12/29 02:56:20;;;;;;;2.57;2.40;;;7.90;99.90;;;;;;4934865;29;20283;-62
2023/12/29 02:58:47;;;;;;;1.70;1.60;;;7.90;99.90;;;;;;4934996;29;20568;-62
2023/12/29 03:01:13;;;;;;;3.55;2.67;;;7.90;99.90;;;;;;4934538;29;20659;-62
2023/12/29 03:03:39;;;;;;;2.43;2.30;;;7.90;99.90;;;;;;4934741;29;20202;-62
2023/12/29 03:06:06;;;;;;;4.75;2.80;;;7.90;99.90;;;;;;4934646;29;20193;-62
2023/12/29 03:08:32;;;;;;;2.30;2.10;;;8.00;99.90;;;;;;4934882;29;20174;-62
2023/12/29 03:10:58;;;;;;;2.40;2.25;;;8.00;99.90;;;;;;4934594;29;20825;-61
2023/12/29 03:13:23;;;;;;;0.90;0.87;;;7.90;99.90;;;;;;4934712;29;20264;-62
2023/12/29 03:15:49;;;;;;;3.50;1.90;;;8.00;99.90;;;;;;4934588;29;20198;-62
2023/12/29 03:18:14;;;;;;;1.80;1.80;;;8.00;99.90;;;;;;4934572;29;20644;-62
2023/12/29 03:20:40;;;;;;;2.20;2.10;;;8.00;99.90;;;;;;4934217;29;20237;-62
2023/12/29 03:23:06;;;;;;;2.23;2.10;;;8.00;99.90;;;;;;4933531;29;20555;-62
2023/12/29 03:25:31;;;;;;;2.53;2.33;;;8.00;99.90;;;;;;4934458;29;20291;-62
2023/12/29 03:27:57;;;;;;;1.97;1.83;;;8.00;99.90;;;;;;4934511;29;20233;-62
2023/12/29 03:30:22;;;;;;;2.10;1.87;;;8.00;99.90;;;;;;4934133;29;20169;-62
2023/12/29 03:32:48;;;;;;;0.97;0.97;;;7.90;99.90;;;;;;4934496;29;20177;-61
2023/12/29 03:35:14;;;;;;;1.80;1.63;;;7.90;99.90;;;;;;4934453;29;20557;-62
2023/12/29 03:37:39;;;;;;;2.67;2.00;;;7.90;99.90;;;;;;4934455;29;20188;-62
2023/12/29 03:40:06;;;;;;;2.13;2.00;;;8.00;99.90;;;;;;4934263;29;20421;-61
2023/12/29 03:42:32;;;;;;;1.65;1.55;;;7.90;99.90;;;;;;4919128;29;20268;-61
2023/12/29 03:44:58;;;;;;;2.00;1.83;;;7.90;99.90;;;;;;4938115;29;20249;-62
2023/12/29 03:47:23;;;;;;;0.80;0.80;;;8.00;99.90;;;;;;4938245;29;20197;-62
2023/12/29 03:49:49;;;;;;;1.20;1.10;;;7.90;99.90;;;;;;4938136;29;20656;-62
2023/12/29 03:52:14;;;;;;;2.50;2.40;;;7.80;99.90;;;;;;4938068;29;20174;-61
2023/12/29 03:54:40;;;;;;;1.70;1.00;;;7.90;99.90;;;;;;4938208;29;20256;-62
2023/12/29 03:57:06;;;;;;;5.93;2.80;;;7.90;99.90;;;;;;4938023;29;20783;-61
2023/12/29 03:59:31;;;;;;;1.13;1.10;;;7.90;99.90;;;;;;4937889;29;20180;-62
2023/12/29 04:01:57;;;;;;;1.33;1.23;;;7.90;99.90;;;;;;4937813;29;20257;-61
2023/12/29 04:04:23;;;;;;;1.03;1.00;;;7.90;99.90;;;;;;4938050;29;20565;-60
2023/12/29 04:06:49;;;;;;;0.80;0.80;;;7.70;99.90;;;;;;4937852;29;20197;-61
2023/12/29 04:09:14;;;;;;;3.70;1.20;;;7.70;99.90;;;;;;4937902;29;20174;-61
2023/12/29 04:11:40;;;;;;;1.17;1.17;;;7.70;99.90;;;;;;4937503;29;20252;-61
2023/12/29 04:14:12;;;;;;;2.20;1.30;;;7.70;99.90;;;;;;4937819;29;20652;-62
2023/12/29 04:16:38;;;;;;;2.15;1.13;;;7.80;99.90;;;;;;4937901;29;20633;-62
2023/12/29 04:19:04;;;;;;;1.10;1.10;;;7.80;99.90;;;;;;4937762;29;20178;-62
2023/12/29 04:21:29;;;;;;;1.30;1.27;;;7.90;99.90;;;;;;4937418;29;20218;-62
2023/12/29 04:23:55;;;;;;;0.97;0.97;;;7.90;99.90;;;;;;4937568;29;20200;-61
2023/12/29 04:26:20;;;;;;;3.93;3.53;;;7.90;99.90;;;;;;4937970;29;20209;-62
2023/12/29 04:28:46;;;;;;;1.50;1.47;;;7.70;99.90;;;;;;4937625;29;20182;-62
2023/12/29 04:31:12;;;;;;;1.70;1.60;;;7.80;99.90;;;;;;4937184;29;20170;-62
2023/12/29 04:33:37;;;;;;;1.83;1.33;;;7.80;99.90;;;;;;4937477;29;20170;-62
2023/12/29 04:36:03;;;;;;;2.53;1.23;;;7.60;99.90;;;;;;4937454;29;20224;-62
2023/12/29 04:38:29;;;;;;;1.40;1.00;;;7.60;99.90;;;;;;4937415;29;20897;-62
2023/12/29 04:40:54;;;;;;;1.57;1.33;;;7.70;99.90;;;;;;4936923;29;20177;-62
2023/12/29 04:43:20;;;;;;;1.43;1.33;;;7.70;99.90;;;;;;4937573;29;20249;-62
2023/12/29 04:45:45;;;;;;;1.73;1.63;;;7.70;99.90;;;;;;4937138;29;20216;-62
2023/12/29 04:48:12;;;;;;;0.70;0.70;;;7.80;99.90;;;;;;4937212;29;20193;-61
2023/12/29 04:50:37;;;;;;;1.92;1.83;;;7.90;99.90;;;;;;4936819;29;20167;-61
2023/12/29 04:53:03;;;;;;;0.93;0.93;;;8.00;99.90;;;;;;4936782;29;20277;-62
2023/12/29 04:55:29;;;;;;;2.43;1.80;;;8.00;99.90;;;;;;4936914;29;20278;-62
2023/12/29 04:57:54;;;;;;;1.70;0.83;;;8.00;99.90;;;;;;4937055;29;20189;-62
2023/12/29 05:00:20;;;;;;;1.10;1.10;;;8.10;99.90;;;;;;4936658;29;20237;-62
2023/12/29 05:02:45;;;;;;;1.13;1.03;;;8.20;99.90;;;;;;4936946;29;20175;-61
2023/12/29 05:05:11;;;;;;;0.80;0.80;;;8.20;99.90;;;;;;4936851;29;20700;-62
2023/12/29 05:07:37;;;;;;;1.13;1.13;;;8.20;99.90;;;;;;4936998;29;20182;-62
2023/12/29 05:10:03;;;;;;;7.33;1.47;;;8.00;99.90;;;;;;4936589;29;20188;-62
2023/12/29 05:12:29;;;;;;;0.80;0.80;;;7.90;99.90;;;;;;4936570;29;20323;-62
2023/12/29 05:14:55;;;;;;;0.95;0.85;;;8.00;99.90;;;;;;4936923;29;20191;-62
2023/12/29 05:17:21;;;;;;;1.50;1.10;;;8.10;99.90;;;;;;4936667;29;20565;-62
2023/12/29 05:19:46;;;;;;;2.60;2.40;;;8.20;99.90;;;;;;4936538;29;20202;-62
2023/12/29 05:22:15;;;;;;;1.30;1.23;;;8.20;99.90;;;;;;4936451;29;20178;-62
2023/12/29 05:24:42;;;;;;;2.15;1.95;;;8.20;99.90;;;;;;4936403;29;20194;-62
2023/12/29 05:27:07;;;;;;;0.45;0.45;;;8.30;99.90;;;;;;4936639;29;20195;-62
2023/12/29 05:29:33;;;;;;;2.00;1.60;;;8.30;99.90;;;;;;4936390;29;20519;-62
2023/12/29 05:31:59;;;;;;;1.93;1.83;;;8.30;99.90;;;;;;4936405;29;20185;-62
2023/12/29 05:34:24;;;;;;;0.93;0.93;;;8.20;99.90;;;;;;4936373;29;20177;-62
2023/12/29 05:36:50;;;;;;;0.93;0.83;;;8.20;99.90;;;;;;4936268;29;20190;-61
2023/12/29 05:39:15;;;;;;;1.20;1.20;;;8.20;99.90;;;;;;4936246;29;20205;-62
2023/12/29 05:41:41;;;;;;;0.90;0.90;;;8.20;99.90;;;;;;4935969;29;20225;-62
2023/12/29 05:44:07;;;;;;;2.00;1.80;;;8.20;99.90;;;;;;4936104;29;20269;-62
2023/12/29 05:46:32;;;;;;;1.50;1.40;;;8.20;99.90;;;;;;4935935;29;20212;-62
2023/12/29 05:48:58;;;;;;;1.27;1.17;;;8.20;99.90;;;;;;4936117;29;20171;-62
2023/12/29 05:51:24;;;;;;;1.52;1.38;;;8.20;99.90;;;;;;4935757;29;20230;-60
2023/12/29 05:53:50;;;;;;;1.03;1.03;;;8.30;99.90;;;;;;4935923;29;20198;-62
2023/12/29 05:56:15;;;;;;;0.90;0.90;;;8.30;99.90;;;;;;4936073;29;20209;-62
2023/12/29 05:58:45;;;;;;;1.07;1.00;;;8.30;99.90;;;;;;4936147;29;20178;-62
2023/12/29 06:01:11;;;;;;;1.10;1.10;;;8.40;99.90;;;;;;4935681;29;20174;-61
2023/12/29 06:03:37;;;;;;;1.17;1.08;;;8.40;99.90;;;;;;4935812;29;20189;-62
2023/12/29 06:06:02;;;;;;;0.67;0.67;;;8.40;99.90;;;;;;4935522;29;20685;-60
2023/12/29 06:08:28;;;;;;;1.57;1.47;;;8.40;99.90;;;;;;4935706;29;20988;-62
2023/12/29 06:10:54;;;;;;;1.13;1.03;;;8.30;99.90;;;;;;4935456;29;20764;-62
2023/12/29 06:13:19;;;;;;;2.23;2.03;;;8.40;99.90;;;;;;4935717;29;20170;-62
2023/12/29 06:15:45;;;;;;;1.97;1.87;;;8.40;99.90;;;;;;4935496;29;20214;-62
2023/12/29 06:18:11;;;;;;;2.00;1.03;;;8.50;99.90;;;;;;4935600;29;20186;-62
2023/12/29 06:20:36;;;;;;;0.90;0.90;;;8.50;99.90;;;;;;4935337;29;20181;-61
2023/12/29 06:23:02;;;;;;;1.90;1.33;;;8.40;99.90;;;;;;4935437;29;20202;-62
2023/12/29 06:25:28;;;;;;;0.60;0.60;;;8.40;99.90;;;;;;4935363;29;20210;-62
2023/12/29 06:27:54;;;;;;;0.60;0.60;;;8.40;99.90;;;;;;4935454;29;20167;-62
2023/12/29 06:30:20;;;;;;;1.42;1.33;;;8.30;99.90;;;;;;4935001;29;20181;-61
2023/12/29 06:32:46;;;;;;;1.73;1.63;;;8.20;99.90;;;;;;4935433;29;20178;-62
2023/12/29 06:35:11;;;;;;;2.10;0.70;;;8.20;99.90;;;;;;4935264;29;20681;-62
2023/12/29 06:37:38;;;;;;;1.17;0.83;;;8.20;99.90;;;;;;4935225;29;20551;-61
2023/12/29 06:40:06;;;;;;;0.70;0.52;;;8.20;99.90;;;;;;4935089;29;20256;-62
2023/12/29 06:42:32;;;;;;;0.93;0.93;;;8.20;99.90;;;;;;4934986;29;20201;-62
2023/12/29 06:44:57;;;;;;;0.93;0.93;;;8.20;99.90;;;;;;4935031;29;20198;-62
2023/12/29 06:47:23;;;;;;;0.40;0.40;;;8.30;99.90;;;;;;4935030;29;20201;-62
2023/12/29 06:49:50;;;;;;;0.70;0.60;;;8.30;99.90;;;;;;4934986;29;20174;-62
2023/12/29 06:52:16;;;;;;;0.40;0.40;;;8.40;99.90;;;;;;4934733;29;20182;-62
2023/12/29 06:54:42;;;;;;;0.70;0.70;;;8.50;99.90;;;;;;4934933;29;20556;-62
2023/12/29 06:57:08;;;;;;;0.70;0.70;;;8.40;99.90;;;;;;4934783;29;20438;-62
2023/12/29 06:59:33;;;;;;;0.50;0.50;;;8.40;99.90;;;;;;4934538;29;20182;-61
2023/12/29 07:02:02;;;;;;;0.40;0.40;;;8.50;99.90;;;;;;4934749;29;20186;-61
2023/12/29 07:04:28;;;;;;;1.02;0.77;;;8.50;99.90;;;;;;4934802;29;20197;-62
2023/12/29 07:06:54;;;;;;;1.37;1.27;;;8.40;99.90;;;;;;4934699;29;20209;-62
2023/12/29 07:09:19;;;;;;;0.80;0.80;;;8.10;99.90;;;;;;4934783;29;20656;-62
2023/12/29 07:11:49;;;;;;;1.90;1.77;;;8.00;99.90;;;;;;4934537;29;20180;-62
2023/12/29 07:14:15;;;;;;;0.95;0.95;;;8.10;99.90;;;;;;4934788;29;20193;-62
2023/12/29 07:16:41;;;;;;;1.50;1.40;;;8.10;99.90;;;;;;4934537;29;20194;-62
2023/12/29 07:19:06;;;;;;;1.37;1.33;;;8.20;99.90;;;;;;4934705;29;20417;-62
2023/12/29 07:21:32;;;;;;;0.90;0.90;;;8.30;99.90;;;;;;4934266;29;20180;-62
2023/12/29 07:23:58;;;;;;;0.93;0.83;;;8.20;99.90;;;;;;4934591;29;20285;-62
2023/12/29 07:26:23;;;;;;;1.37;1.13;;;8.30;99.90;;;;;;4934557;29;20189;-62
2023/12/29 07:28:53;;;;;;;1.30;1.20;;;8.40;99.90;;;;;;4934552;29;20174;-62
2023/12/29 07:31:20;;;;;;;1.20;1.20;;;8.50;99.90;;;;;;4934402;29;20213;-62
2023/12/29 07:33:45;;;;;;;0.60;0.60;;;8.40;99.90;;;;;;4934526;29;20226;-60
2023/12/29 07:36:11;;;;;;;1.17;1.07;;;8.40;99.90;;;;;;4934408;29;20668;-62
2023/12/29 07:38:37;;;;;;;0.70;0.70;;;8.40;99.90;;;;;;4934513;29;20234;-62
2023/12/29 07:41:02;;;;;;;1.20;1.10;;;8.40;99.90;;;;;;4934277;29;20174;-62
2023/12/29 07:43:28;;;;;;;0.80;0.80;;;8.40;99.90;;;;;;4934402;29;20249;-62
2023/12/29 07:45:54;;;;;;;1.27;1.17;;;8.40;99.90;;;;;;4934283;29;20245;-61
2023/12/29 07:48:19;;;;;;;0.83;0.83;;;8.40;99.90;;;;;;4934390;29;20202;-62
2023/12/29 07:50:45;;;;;;;0.90;0.90;;;8.40;99.90;;;;;;4934069;29;20178;-62
2023/12/29 07:53:10;;;;;;;0.77;0.77;;;8.40;99.90;;;;;;4934534;29;20193;-62
2023/12/29 07:55:42;;;;;;;1.77;1.03;;;8.50;99.90;;;;;;4934456;29;20194;-62
2023/12/29 07:58:10;;;;;;;0.50;0.50;;;8.50;99.90;;;;;;4934317;29;20171;-62
2023/12/29 08:00:36;;;;;;;0.60;0.60;;;8.50;99.90;;;;;;4933967;29;20594;-62
2023/12/29 08:03:01;;;;;;;0.40;0.40;;;8.60;99.90;;;;;;4934221;29;20174;-61
2023/12/29 08:05:27;;;;;;;0.83;0.83;;;8.60;99.90;;;;;;4934370;29;20210;-62
2023/12/29 08:07:53;;;;;;;0.40;0.40;;;8.60;99.90;;;;;;4934197;29;20170;-62
2023/12/29 08:10:19;;;;;;;1.02;0.90;;;8.50;99.90;;;;;;4934025;29;20538;-62
2023/12/29 08:12:44;;;;;;;0.60;0.50;;;8.60;99.90;;;;;;4934141;29;20305;-62
2023/12/29 08:15:10;;;;;;;1.23;0.80;;;8.60;99.90;;;;;;4934550;29;20170;-61
2023/12/29 08:17:36;;;;;;;2.00;1.90;;;8.60;99.90;;;;;;4934096;29;20178;-62
2023/12/29 08:20:02;;;;;;;0.60;0.60;;;8.60;99.90;;;;;;4934180;29;20174;-62
2023/12/29 08:22:32;;;;;;;1.20;1.10;;;8.60;99.90;;;;;;4934118;29;20178;-62
2023/12/29 08:24:58;;;;;;;1.05;0.65;;;8.50;99.90;;;;;;4934195;29;20462;-61
2023/12/29 08:27:25;;;;;;;0.70;0.70;;;8.40;99.90;;;;;;4934256;29;20205;-62
2023/12/29 08:29:51;;;;;;;0.70;0.70;;;8.30;99.90;;;;;;4937469;29;20406;-62
2023/12/29 08:32:17;;;;;;;2.27;0.97;;;8.40;99.90;;;;;;4937272;29;20178;-62
2023/12/29 08:34:43;;;;;;;1.20;1.10;;;8.50;99.90;;;;;;4937527;29;20418;-62
2023/12/29 08:37:08;;;;;;;0.60;0.60;;;8.50;99.90;;;;;;4937351;29;20280;-61
2023/12/29 08:39:34;;;;;;;1.43;1.33;;;8.60;99.90;;;;;;4937676;29;20656;-62
2023/12/29 08:41:59;;;;;;;1.80;0.80;;;8.60;99.90;;;;;;4937224;29;20261;-62
2023/12/29 08:44:25;;;;;;;1.60;1.50;;;8.70;99.90;;;;;;4937278;29;20256;-62
2023/12/29 08:46:51;;;;;;;0.63;0.63;;;8.70;99.90;;;;;;4937061;29;20246;-62
2023/12/29 08:49:16;;;;;;;1.33;1.03;;;8.60;99.90;;;;;;4937207;29;20178;-61
2023/12/29 08:51:42;;;;;;;1.50;0.93;;;8.60;99.90;;;;;;4936897;29;20175;-62
2023/12/29 08:54:08;;;;;;;0.50;0.50;;;8.40;99.90;;;;;;4937190;29;20180;-62
2023/12/29 08:56:34;;;;;;;1.10;0.60;;;8.40;99.90;;;;;;4937046;29;20277;-62
2023/12/29 08:58:59;;;;;;;1.57;1.30;;;8.50;99.90;;;;;;4937088;29;20661;-62
2023/12/29 09:01:25;;;;;;;0.90;0.90;;;8.50;99.90;;;;;;4936668;29;20214;-62
2023/12/29 09:03:50;;;;;;;0.63;0.53;;;8.60;99.90;;;;;;4936971;29;20206;-62
2023/12/29 09:06:16;;;;;;;0.83;0.80;;;8.50;99.90;;;;;;4936928;29;20538;-62
2023/12/29 09:08:42;;;;;;;0.70;0.70;;;8.60;99.90;;;;;;4936956;29;20180;-62
2023/12/29 09:11:07;;;;;;;1.90;1.47;;;8.80;99.90;;;;;;4936504;29;20174;-62
2023/12/29 09:13:33;;;;;;;1.27;1.17;;;8.80;99.90;;;;;;4936766;29;20645;-61
2023/12/29 09:15:59;;;;;;;0.70;0.70;;;8.70;99.90;;;;;;4936553;29;20226;-61
2023/12/29 09:18:25;;;;;;;0.70;0.70;;;8.60;99.90;;;;;;4936871;29;20170;-62
2023/12/29 09:20:51;;;;;;;3.33;3.13;;;8.60;99.90;;;;;;4936433;29;20773;-62
2023/12/29 09:23:17;;;;;;;1.33;1.23;;;8.70;99.90;;;;;;4936675;29;20250;-62
2023/12/29 09:25:42;;;;;;;2.15;1.00;;;8.90;99.90;;;;;;4936401;29;20513;-62
2023/12/29 09:28:08;;;;;;;1.50;1.17;;;8.90;99.90;;;;;;4936588;29;20182;-62
2023/12/29 09:30:34;;;;;;;5.40;1.37;;;8.90;99.90;;;;;;4936056;29;20501;-62
2023/12/29 09:33:00;;;;;;;0.70;0.70;;;8.80;99.90;;;;;;4936516;29;20210;-61
2023/12/29 09:35:26;;;;;;;7.20;6.00;;;8.70;99.90;;;;;;4936330;29;20182;-62
2023/12/29 09:37:51;;;;;;;1.70;1.20;;;8.60;99.90;;;;;;4936445;29;20501;-62
2023/12/29 09:40:17;;;;;;;1.70;1.60;;;8.60;99.90;;;;;;4935093;29;20269;-62
2023/12/29 09:42:46;;;;;;;1.00;1.00;;;8.70;99.90;;;;;;4936165;29;20185;-61
2023/12/29 09:45:13;;;;;;;1.95;0.88;;;8.70;99.90;;;;;;4935758;29;20684;-62
2023/12/29 09:47:43;;;;;;;15.57;6.85;;;8.80;99.90;;;;;;4936308;29;20186;-63
2023/12/29 09:50:13;;;;;;;3.63;1.50;;;8.80;99.90;;;;;;4935973;29;20198;-63
2023/12/29 09:52:43;;;;;;;4.00;2.13;;;8.80;99.90;;;;;;4936148;29;20170;-63
2023/12/29 09:55:10;;;;;;;3.22;1.45;;;8.80;99.90;;;;;;4935942;29;20263;-62
2023/12/29 09:57:39;;;;;;;1.95;1.85;;;8.80;99.90;;;;;;4935920;29;20570;-63
2023/12/29 10:00:10;;;;;;;3.67;1.98;;;8.80;99.90;;;;;;4935781;29;20181;-63
2023/12/29 10:02:37;;;;;;;1.88;1.75;;;8.80;99.90;;;;;;4935865;29;20189;-63
2023/12/29 10:05:04;;;;;;;0.60;0.60;;;8.70;99.90;;;;;;4935800;29;20206;-63
2023/12/29 10:07:35;;;;;;;0.93;0.90;;;8.70;99.90;;;;;;4935743;29;20200;-63
2023/12/29 10:10:03;;;;;;;1.60;1.50;;;8.70;99.90;;;;;;4935581;29;20162;-63
2023/12/29 10:12:30;;;;;;;0.70;0.70;;;8.60;99.90;;;;;;4935490;29;20660;-62
2023/12/29 10:15:08;;;;;;;5.00;2.97;;;8.60;99.90;;;;;;4935668;29;20597;-63
2023/12/29 10:17:57;;;;;;;0.95;0.85;;;8.60;99.90;;;;;;4935646;29;20261;-62
2023/12/29 10:20:28;;;;;;;4.20;2.67;;;8.70;99.90;;;;;;4935330;29;20563;-63
2023/12/29 10:23:06;;;;;;;1.65;1.58;;;8.90;99.90;;;;;;4935476;29;20178;-63
2023/12/29 10:25:33;;;;;;;0.95;0.95;;;9.10;99.90;;;;;;4935324;29;20711;-63
2023/12/29 10:27:59;;;;;;;0.80;0.80;;;9.20;99.90;;;;;;4935416;29;20210;-63
2023/12/29 10:30:26;;;;;;;1.77;1.67;;;9.50;99.90;;;;;;4935096;29;20644;-63
2023/12/29 10:32:52;;;;;;;0.80;0.80;;;9.60;99.90;;;;;;4935385;29;20171;-63
2023/12/29 10:35:19;;;;;;;3.58;3.28;;;9.50;99.90;;;;;;4935248;29;20189;-63
2023/12/29 10:37:44;;;;;;;1.25;0.80;;;9.50;99.90;;;;;;4935357;29;20182;-62
2023/12/29 10:40:18;;;;;;;1.27;1.17;;;9.50;99.90;;;;;;4935050;29;20536;-64
2023/12/29 10:43:06;;;;;;;6.90;4.45;;;9.70;99.90;;;;;;4935250;29;20186;-63
2023/12/29 10:45:32;;;;;;;3.35;0.65;;;9.70;99.90;;;;;;4934801;29;20224;-63
2023/12/29 10:48:00;;;;;;;1.13;0.90;;;9.60;99.90;;;;;;4935202;29;20174;-63
2023/12/29 10:50:29;;;;;;;1.58;1.48;;;9.70;99.90;;;;;;4934630;29;20414;-62
2023/12/29 10:53:17;;;;;;;3.65;2.05;;;9.80;99.90;;;;;;4935001;29;20217;-62
2023/12/29 10:55:43;;;;;;;1.10;1.10;;;9.80;99.90;;;;;;4927652;29;20206;-63
2023/12/29 10:58:09;;;;;;;1.50;1.40;;;9.60;99.90;;;;;;4934871;29;20265;-63
2023/12/29 11:00:35;;;;;;;1.93;1.83;;;9.60;99.90;;;;;;4934605;29;20182;-63
2023/12/29 11:03:01;;;;;;;1.60;1.50;;;9.80;99.90;;;;;;4934980;29;20603;-63
2023/12/29 11:05:27;;;;;;;0.97;0.80;;;9.70;99.90;;;;;;4934752;29;20309;-63
2023/12/29 11:07:54;;;;;;;1.88;1.75;;;9.60;99.90;;;;;;4934724;29;20406;-62
2023/12/29 11:10:21;;;;;;;3.88;3.65;;;9.50;99.90;;;;;;4934488;29;20257;-63
2023/12/29 11:12:48;;;;;;;0.80;0.80;;;9.40;99.90;;;;;;4934629;29;20170;-63
2023/12/29 11:15:15;;;;;;;1.90;1.20;;;9.60;99.90;;;;;;4934570;29;20221;-63
2023/12/29 11:17:49;;;;;;;1.05;0.95;;;9.70;99.90;;;;;;4934935;29;20208;-63
2023/12/29 11:20:16;;;;;;;0.68;0.68;;;9.90;99.90;;;;;;4934451;29;20181;-63
2023/12/29 11:22:43;;;;;;;1.95;1.77;;;10.00;99.90;;;;;;4934607;29;20181;-63
2023/12/29 11:25:10;;;;;;;5.00;3.25;;;10.20;99.90;;;;;;4934255;29;20221;-63
2023/12/29 11:27:36;;;;;;;1.08;1.08;;;10.30;99.90;;;;;;4934592;29;20178;-62
2023/12/29 11:30:04;;;;;;;0.93;0.93;;;10.30;99.90;;;;;;4934410;29;20676;-63
2023/12/29 11:32:44;;;;;;;1.10;1.00;;;10.40;99.90;;;;;;4934444;29;20186;-62
2023/12/29 11:35:19;;;;;;;1.73;1.63;;;10.40;99.90;;;;;;4934856;29;20535;-63
2023/12/29 11:38:02;;;;;;;2.05;1.02;;;10.40;99.90;;;;;;4934364;29;20406;-63
2023/12/29 11:40:49;;;;;;;1.15;0.65;;;10.30;99.90;;;;;;4934345;29;20213;-63
2023/12/29 11:43:17;;;;;;;0.80;0.77;;;10.30;99.90;;;;;;4934560;29;20185;-63
2023/12/29 11:45:44;;;;;;;0.90;0.90;;;10.50;99.90;;;;;;4934167;29;20469;-62
2023/12/29 11:48:11;;;;;;;1.60;1.15;;;10.60;99.90;;;;;;4934206;29;20265;-63
2023/12/29 11:50:40;;;;;;;0.75;0.75;;;10.70;99.80;;;;;;4934123;29;20177;-63
2023/12/29 11:53:06;;;;;;;0.88;0.88;;;10.50;99.60;;;;;;4934324;29;20197;-63
2023/12/29 11:55:37;;;;;;;0.82;0.70;;;10.50;99.90;;;;;;4934299;29;20710;-63
2023/12/29 11:58:07;;;;;;;1.23;0.88;;;10.50;99.90;;;;;;4934334;29;20178;-63
2023/12/29 12:00:46;;;;;;;0.63;0.63;;;10.60;99.90;;;;;;4933922;29;20171;-63
2023/12/29 12:03:31;;;;;;;1.75;1.65;;;10.60;99.20;;;;;;4935740;29;20261;-62
2023/12/29 12:05:58;;;;;;;1.00;0.73;;;10.60;99.60;;;;;;4937800;29;20206;-62
2023/12/29 12:08:39;;;;;;;3.38;1.25;;;10.40;99.50;;;;;;4937931;29;20174;-63
2023/12/29 12:11:29;;;;;;;4.10;1.00;;;10.40;99.70;;;;;;4937598;29;20193;-62
2023/12/29 12:13:56;;;;;;;1.00;0.98;;;10.30;99.90;;;;;;4937896;29;20177;-63
2023/12/29 12:16:40;;;;;;;1.35;1.25;;;10.40;99.90;;;;;;4937771;29;20217;-62
2023/12/29 12:19:07;;;;;;;0.98;0.98;;;10.40;99.70;;;;;;4937853;29;20253;-63
2023/12/29 12:21:32;;;;;;;1.05;0.75;;;10.40;99.90;;;;;;4937260;29;20521;-63
2023/12/29 12:23:59;;;;;;;1.00;1.00;;;10.50;99.90;;;;;;4937781;29;20250;-63
2023/12/29 12:26:26;;;;;;;2.47;1.70;;;10.50;99.90;;;;;;4937592;29;20623;-63
2023/12/29 12:28:55;;;;;;;0.50;0.50;;;10.40;99.70;;;;;;4937663;29;20600;-63
2023/12/29 12:31:20;;;;;;;0.63;0.63;;;10.10;99.90;;;;;;4937265;29;20171;-62
2023/12/29 12:33:55;;;;;;;3.90;1.23;;;10.10;99.90;;;;;;4937476;29;20557;-63
2023/12/29 12:36:22;;;;;;;0.85;0.70;;;10.20;99.90;;;;;;4937308;29;20201;-63
2023/12/29 12:38:52;;;;;;;1.00;1.00;;;10.30;99.90;;;;;;4937387;29;20249;-63
2023/12/29 12:41:17;;;;;;;1.10;0.90;;;10.50;99.90;;;;;;4937178;29;20257;-63
2023/12/29 12:43:50;;;;;;;0.73;0.73;;;10.50;99.90;;;;;;4937236;29;20728;-63
2023/12/29 12:46:16;;;;;;;5.40;2.83;;;10.50;99.90;;;;;;4937049;29;20218;-63
2023/12/29 12:48:45;;;;;;;0.63;0.63;;;10.30;99.90;;;;;;4937409;29;20186;-63
2023/12/29 12:51:12;;;;;;;0.75;0.70;;;10.20;99.90;;;;;;4936928;29;20247;-63
2023/12/29 12:53:44;;;;;;;1.40;1.30;;;10.00;99.90;;;;;;4937289;29;20178;-63